Terminal Aerodrome Forecast
Issued by NWS

Home | Current Version | Previous Version | Text Only | Print | Product List | Glossary On
Versions: 1 2 3 4 5 6 7 8 9 10 11 12 13 14 15 16 17 18 19 20 21 22 23 24 25 26 27 28 29 30 31 32 33 34 35 36 37 38 39 40 41 42 43 44 45 46 47 48 49 50
000
FTUS43 KLOT 211722
TAFORD
TAF
KORD 211722Z 2118/2224 15012KT P6SM FEW120 BKN180
     FM220000 14013G19KT P6SM BKN080
     FM220800 15014KT P6SM BKN120 WS020/19045KT
     FM221500 17014G22KT P6SM SCT020 OVC040 PROB30 2215/2218 3SM
      -FZDZSN OVC018
     FM221800 18016G25KT 3SM -FZRAPLSN OVC018
     FM222100 19015G24KT 4SM -RA OVC012=

USA.gov is the U.S. government's official web portal to all federal, state and local government web resources and services.